Kangerlussuaq

KL  EN  DA
ASIAQ
Weather Now GREENLAND SURVEY
Updated [WGT/WGST] Temperature [°C] Wind [m/s] Air pressure [hPa] Relative humidity [%] Precipitation [mm]
Present Wind chill Speed Max
25.02 07:00-29,1-38,43,0 ⇙3,7101070-0,1
25.02 06:00-27,7-36,02,6 ⇙3,61010730,0
25.02 05:00-26,2-35,63,4 ⇙4,0101075-0,2
25.02 04:00-25,0-33,53,0 ⇙3,5101075-0,1
25.02 03:00-24,4-33,13,2 ⇙4,1101075-0,2
25.02 02:00-25,3-33,52,8 ⇙3,31009760,0
25.02 01:00-25,6-34,73,3 ⇙3,91009750,0
25.02 00:00-25,8-34,12,8 ⇐3,61008750,0
24.02 23:00-22,80,00,8 ⇓1,31008750,0
24.02 22:00-22,80,01,0 ⇑1,41008750,0
24.02 21:00-21,2-26,21,6 ⇙2,31007730,0
24.02 20:00-20,8-29,33,6 ⇙4,91006730,0
24.02 19:00-21,5-29,33,0 ⇙3,81006730,0
24.02 18:00-21,7-30,03,3 ⇙3,81005740,0
24.02 17:00-22,2-28,11,9 ⇙2,31005730,0
24.02 16:00-22,4-29,42,4 ⇙2,81004750,0
24.02 15:00-22,90,01,1 ⇙1,6100369-0,1
24.02 14:00-20,00,01,3 ⇖1,61002650,0
24.02 13:00-20,50,01,3 ⇐1,81001660,0
24.02 12:00-21,1-27,82,4 ⇐2,71000680,0
24.02 11:00-20,3-26,12,0 ⇙2,61000670,0
24.02 10:00-22,3-30,93,4 ⇙4,2999700,0
24.02 09:00-23,0-32,54,0 ⇙4,5998710,0
24.02 08:00-23,1-31,12,9 ⇙3,7998710,0
24.02 07:00-23,6-32,53,4 ⇙4,4997720,0
Position: (67.013333333333,-50.72712222)

[Back]